sensor_id;sensor_type;location;lat;lon;timestamp;pressure;altitude;pressure_sealevel;temperature;humidity
6425;BME280;12193;42.642;23.384;2023-06-22T00:01:08;94873.50;;;18.12;100.00
6425;BME280;12193;42.642;23.384;2023-06-22T00:03:37;94868.06;;;18.18;100.00
6425;BME280;12193;42.642;23.384;2023-06-22T00:06:06;94868.31;;;18.17;100.00
6425;BME280;12193;42.642;23.384;2023-06-22T02:58:22;94874.75;;;17.14;100.00
6425;BME280;12193;42.642;23.384;2023-06-22T03:00:51;94872.81;;;17.21;100.00
6425;BME280;12193;42.642;23.384;2023-06-22T03:03:21;94875.44;;;17.21;100.00
6425;BME280;12193;42.642;23.384;2023-06-22T03:05:52;94882.03;;;17.24;100.00
6425;BME280;12193;42.642;23.384;2023-06-22T03:08:21;94882.81;;;17.24;100.00
6425;BME280;12193;42.642;23.384;2023-06-22T03:10:50;94879.97;;;17.26;100.00
6425;BME280;12193;42.642;23.384;2023-06-22T03:13:23;94875.06;;;17.29;100.00
6425;BME280;12193;42.642;23.384;2023-06-22T03:15:53;94881.34;;;17.17;100.00
6425;BME280;12193;42.642;23.384;2023-06-22T03:18:22;94882.78;;;16.96;100.00
6425;BME280;12193;42.642;23.384;2023-06-22T03:20:51;94890.06;;;16.94;100.00
6425;BME280;12193;42.642;23.384;2023-06-22T03:23:21;94896.03;;;16.90;100.00
6425;BME280;12193;42.642;23.384;2023-06-22T03:25:50;94902.97;;;16.73;100.00
6425;BME280;12193;42.642;23.384;2023-06-22T03:28:24;94906.41;;;16.73;100.00
6425;BME280;12193;42.642;23.384;2023-06-22T03:30:54;94901.59;;;16.82;100.00
6425;BME280;12193;42.642;23.384;2023-06-22T03:33:23;94904.81;;;16.95;100.00
6425;BME280;12193;42.642;23.384;2023-06-22T03:35:53;94905.81;;;17.06;100.00
6425;BME280;12193;42.642;23.384;2023-06-22T03:38:22;94913.13;;;17.27;100.00
6425;BME280;12193;42.642;23.384;2023-06-22T03:40:51;94908.31;;;17.35;100.00
6425;BME280;12193;42.642;23.384;2023-06-22T03:43:21;94903.28;;;17.34;100.00
6425;BME280;12193;42.642;23.384;2023-06-22T03:45:53;94911.38;;;17.55;100.00
6425;BME280;12193;42.642;23.384;2023-06-22T03:48:22;94914.19;;;17.65;100.00
6425;BME280;12193;42.642;23.384;2023-06-22T03:50:51;94914.38;;;17.75;100.00
6425;BME280;12193;42.642;23.384;2023-06-22T03:53:21;94915.69;;;17.89;100.00
6425;BME280;12193;42.642;23.384;2023-06-22T03:55:51;94915.91;;;17.99;100.00
6425;BME280;12193;42.642;23.384;2023-06-22T03:58:21;94917.81;;;18.03;100.00
6425;BME280;12193;42.642;23.384;2023-06-22T04:00:53;94931.00;;;18.31;100.00
6425;BME280;12193;42.642;23.384;2023-06-22T04:03:23;94934.50;;;18.37;100.00
6425;BME280;12193;42.642;23.384;2023-06-22T04:05:52;94927.41;;;18.54;100.00
6425;BME280;12193;42.642;23.384;2023-06-22T04:08:22;94927.41;;;18.54;100.00
6425;BME280;12193;42.642;23.384;2023-06-22T04:10:51;94929.34;;;18.75;100.00
6425;BME280;12193;42.642;23.384;2023-06-22T04:13:20;94929.25;;;18.70;100.00
6425;BME280;12193;42.642;23.384;2023-06-22T04:15:50;94924.41;;;18.62;100.00
6425;BME280;12193;42.642;23.384;2023-06-22T04:18:22;94918.00;;;18.58;100.00
6425;BME280;12193;42.642;23.384;2023-06-22T04:20:51;94924.06;;;18.58;100.00
6425;BME280;12193;42.642;23.384;2023-06-22T04:23:20;94915.69;;;18.61;100.00
6425;BME280;12193;42.642;23.384;2023-06-22T04:25:49;94917.75;;;18.59;100.00
6425;BME280;12193;42.642;23.384;2023-06-22T04:28:19;94908.88;;;18.49;100.00
6425;BME280;12193;42.642;23.384;2023-06-22T04:30:48;94903.25;;;18.57;100.00
6425;BME280;12193;42.642;23.384;2023-06-22T04:33:22;94907.13;;;18.71;100.00
6425;BME280;12193;42.642;23.384;2023-06-22T04:35:52;94897.72;;;18.91;100.00
6425;BME280;12193;42.642;23.384;2023-06-22T04:38:23;94893.81;;;19.31;100.00
6425;BME280;12193;42.642;23.384;2023-06-22T04:40:53;94900.00;;;19.20;100.00
6425;BME280;12193;42.642;23.384;2023-06-22T04:43:22;94895.69;;;18.98;100.00
6425;BME280;12193;42.642;23.384;2023-06-22T04:45:52;94902.09;;;19.40;100.00
6425;BME280;12193;42.642;23.384;2023-06-22T04:48:24;94894.47;;;19.22;100.00
6425;BME280;12193;42.642;23.384;2023-06-22T04:50:59;94899.69;;;19.00;100.00
6425;BME280;12193;42.642;23.384;2023-06-22T04:53:29;94892.03;;;18.99;100.00
6425;BME280;12193;42.642;23.384;2023-06-22T04:55:58;94897.13;;;19.22;100.00
6425;BME280;12193;42.642;23.384;2023-06-22T04:58:30;94918.28;;;19.48;100.00
6425;BME280;12193;42.642;23.384;2023-06-22T05:00:59;94917.25;;;19.92;100.00
6425;BME280;12193;42.642;23.384;2023-06-22T05:03:32;94916.78;;;20.21;100.00
6425;BME280;12193;42.642;23.384;2023-06-22T05:06:03;94925.03;;;20.25;100.00
6425;BME280;12193;42.642;23.384;2023-06-22T05:08:32;94924.94;;;20.46;100.00
6425;BME280;12193;42.642;23.384;2023-06-22T05:11:01;94929.25;;;21.20;100.00
6425;BME280;12193;42.642;23.384;2023-06-22T05:13:31;94921.78;;;21.48;100.00
6425;BME280;12193;42.642;23.384;2023-06-22T05:16:00;94915.50;;;21.64;100.00
6425;BME280;12193;42.642;23.384;2023-06-22T05:18:35;94908.56;;;22.19;100.00
6425;BME280;12193;42.642;23.384;2023-06-22T05:21:04;94909.38;;;22.35;100.00
6425;BME280;12193;42.642;23.384;2023-06-22T05:23:34;94922.03;;;22.18;99.45
6425;BME280;12193;42.642;23.384;2023-06-22T05:26:03;94921.38;;;22.62;96.38
6425;BME280;12193;42.642;23.384;2023-06-22T05:28:35;94933.00;;;22.41;96.98
6425;BME280;12193;42.642;23.384;2023-06-22T05:31:05;94924.38;;;21.95;100.00
6425;BME280;12193;42.642;23.384;2023-06-22T05:33:37;94928.69;;;22.25;100.00
6425;BME280;12193;42.642;23.384;2023-06-22T05:36:06;94927.47;;;23.03;98.40
6425;BME280;12193;42.642;23.384;2023-06-22T05:38:36;94940.97;;;23.31;95.78
6425;BME280;12193;42.642;23.384;2023-06-22T05:41:06;94942.28;;;23.43;93.53
6425;BME280;12193;42.642;23.384;2023-06-22T05:43:35;94945.47;;;23.40;90.39
6425;BME280;12193;42.642;23.384;2023-06-22T05:46:05;94947.63;;;23.23;92.43
6425;BME280;12193;42.642;23.384;2023-06-22T05:48:37;94947.53;;;23.73;90.91
6425;BME280;12193;42.642;23.384;2023-06-22T05:51:06;94954.75;;;23.53;88.99
6425;BME280;12193;42.642;23.384;2023-06-22T05:53:35;94959.72;;;23.84;88.56
6425;BME280;12193;42.642;23.384;2023-06-22T05:56:05;94951.06;;;24.70;86.75
6425;BME280;12193;42.642;23.384;2023-06-22T05:58:35;94953.72;;;25.42;80.85
6425;BME280;12193;42.642;23.384;2023-06-22T06:01:04;94958.09;;;24.56;86.68
6425;BME280;12193;42.642;23.384;2023-06-22T06:03:36;94941.25;;;25.89;80.63
6425;BME280;12193;42.642;23.384;2023-06-22T06:06:07;94945.00;;;27.04;75.10
6425;BME280;12193;42.642;23.384;2023-06-22T06:08:37;94942.53;;;27.26;73.19
6425;BME280;12193;42.642;23.384;2023-06-22T06:11:06;94943.34;;;25.92;79.60
6425;BME280;12193;42.642;23.384;2023-06-22T06:13:35;94938.50;;;25.42;80.80
6425;BME280;12193;42.642;23.384;2023-06-22T06:16:04;94935.75;;;26.41;76.26
6425;BME280;12193;42.642;23.384;2023-06-22T06:18:36;94929.28;;;27.34;70.58
6425;BME280;12193;42.642;23.384;2023-06-22T06:21:06;94934.28;;;27.54;70.49
6425;BME280;12193;42.642;23.384;2023-06-22T06:23:35;94929.38;;;28.15;67.75
6425;BME280;12193;42.642;23.384;2023-06-22T06:26:05;94925.69;;;28.38;66.46
6425;BME280;12193;42.642;23.384;2023-06-22T06:28:34;94933.25;;;28.71;63.49
6425;BME280;12193;42.642;23.384;2023-06-22T06:31:04;94931.38;;;28.71;63.50
6425;BME280;12193;42.642;23.384;2023-06-22T06:33:37;94927.13;;;27.81;68.58
6425;BME280;12193;42.642;23.384;2023-06-22T06:36:07;94923.84;;;27.26;72.31
6425;BME280;12193;42.642;23.384;2023-06-22T06:38:36;94928.34;;;26.20;76.70
6425;BME280;12193;42.642;23.384;2023-06-22T06:41:05;94928.28;;;25.78;78.52
6425;BME280;12193;42.642;23.384;2023-06-22T06:43:34;94927.94;;;26.68;73.61
6425;BME280;12193;42.642;23.384;2023-06-22T06:46:04;94918.16;;;26.95;71.25
6425;BME280;12193;42.642;23.384;2023-06-22T06:48:33;94915.25;;;27.29;68.61
6425;BME280;12193;42.642;23.384;2023-06-22T06:51:05;94919.13;;;26.86;70.61
6425;BME280;12193;42.642;23.384;2023-06-22T06:53:35;94916.84;;;26.61;70.42
6425;BME280;12193;42.642;23.384;2023-06-22T06:56:05;94916.56;;;27.31;71.06
6425;BME280;12193;42.642;23.384;2023-06-22T06:58:36;94908.41;;;26.72;72.68
6425;BME280;12193;42.642;23.384;2023-06-22T07:01:05;94907.16;;;27.34;72.24
6425;BME280;12193;42.642;23.384;2023-06-22T07:03:35;94908.28;;;27.14;71.35
6425;BME280;12193;42.642;23.384;2023-06-22T07:06:08;94909.84;;;27.47;69.31
6425;BME280;12193;42.642;23.384;2023-06-22T07:08:37;94902.47;;;26.20;72.89
6425;BME280;12193;42.642;23.384;2023-06-22T07:11:07;94912.69;;;26.13;74.62
6425;BME280;12193;42.642;23.384;2023-06-22T07:13:36;94913.00;;;26.30;75.68
6425;BME280;12193;42.642;23.384;2023-06-22T07:16:05;94915.53;;;26.22;74.07
6425;BME280;12193;42.642;23.384;2023-06-22T07:18:34;94904.56;;;26.41;75.71
6425;BME280;12193;42.642;23.384;2023-06-22T07:21:03;94907.81;;;27.26;72.43
6425;BME280;12193;42.642;23.384;2023-06-22T07:23:36;94907.63;;;27.81;68.14
6425;BME280;12193;42.642;23.384;2023-06-22T07:26:05;94907.53;;;27.99;65.62
6425;BME280;12193;42.642;23.384;2023-06-22T07:28:35;94917.25;;;28.79;63.60
6425;BME280;12193;42.642;23.384;2023-06-22T07:31:06;94914.88;;;28.91;60.58
6425;BME280;12193;42.642;23.384;2023-06-22T07:33:36;94912.00;;;29.10;60.95
6425;BME280;12193;42.642;23.384;2023-06-22T07:36:05;94902.41;;;29.61;59.64
6425;BME280;12193;42.642;23.384;2023-06-22T07:38:37;94902.03;;;30.40;56.20
6425;BME280;12193;42.642;23.384;2023-06-22T07:41:06;94901.56;;;30.30;54.88
6425;BME280;12193;42.642;23.384;2023-06-22T07:43:36;94907.06;;;30.25;53.83
6425;BME280;12193;42.642;23.384;2023-06-22T07:46:05;94911.25;;;30.73;55.16
6425;BME280;12193;42.642;23.384;2023-06-22T07:48:36;94902.34;;;29.53;54.42
6425;BME280;12193;42.642;23.384;2023-06-22T07:51:07;94908.72;;;29.13;58.25
6425;BME280;12193;42.642;23.384;2023-06-22T07:53:42;94916.25;;;29.55;57.89
6425;BME280;12193;42.642;23.384;2023-06-22T07:56:12;94911.25;;;28.25;58.13
6425;BME280;12193;42.642;23.384;2023-06-22T07:58:45;94904.69;;;30.23;51.37
6425;BME280;12193;42.642;23.384;2023-06-22T08:01:15;94903.84;;;30.87;52.05
6425;BME280;12193;42.642;23.384;2023-06-22T08:03:47;94900.84;;;30.63;51.47
6425;BME280;12193;42.642;23.384;2023-06-22T08:06:17;94899.31;;;30.15;50.26
6425;BME280;12193;42.642;23.384;2023-06-22T08:08:49;94903.41;;;29.21;50.99
6425;BME280;12193;42.642;23.384;2023-06-22T08:11:20;94898.91;;;29.30;52.13
6425;BME280;12193;42.642;23.384;2023-06-22T08:13:51;94893.31;;;30.18;50.11
6425;BME280;12193;42.642;23.384;2023-06-22T08:16:21;94902.53;;;31.01;48.56
6425;BME280;12193;42.642;23.384;2023-06-22T08:18:51;94896.72;;;30.74;48.37
6425;BME280;12193;42.642;23.384;2023-06-22T08:21:21;94894.97;;;29.06;52.58
6425;BME280;12193;42.642;23.384;2023-06-22T08:23:53;94890.19;;;28.59;53.92
6425;BME280;12193;42.642;23.384;2023-06-22T08:26:22;94883.81;;;28.33;55.24
6425;BME280;12193;42.642;23.384;2023-06-22T08:28:52;94880.91;;;29.00;55.06
6425;BME280;12193;42.642;23.384;2023-06-22T08:31:21;94874.28;;;29.20;55.38
6425;BME280;12193;42.642;23.384;2023-06-22T08:33:50;94867.94;;;29.85;54.01
6425;BME280;12193;42.642;23.384;2023-06-22T08:36:20;94870.44;;;30.29;51.44
6425;BME280;12193;42.642;23.384;2023-06-22T08:38:51;94880.94;;;30.81;48.64
6425;BME280;12193;42.642;23.384;2023-06-22T08:41:27;94877.78;;;29.98;52.46
6425;BME280;12193;42.642;23.384;2023-06-22T08:43:57;94882.88;;;29.39;55.64
6425;BME280;12193;42.642;23.384;2023-06-22T08:46:26;94883.59;;;29.53;54.45
6425;BME280;12193;42.642;23.384;2023-06-22T08:48:59;94886.16;;;29.58;54.43
6425;BME280;12193;42.642;23.384;2023-06-22T08:51:28;94887.59;;;29.33;54.64
6425;BME280;12193;42.642;23.384;2023-06-22T08:54:00;94887.03;;;30.22;51.97
6425;BME280;12193;42.642;23.384;2023-06-22T08:56:29;94888.16;;;29.22;53.23
6425;BME280;12193;42.642;23.384;2023-06-22T08:58:59;94879.13;;;29.78;52.08
6425;BME280;12193;42.642;23.384;2023-06-22T09:01:28;94876.97;;;30.78;49.78
6425;BME280;12193;42.642;23.384;2023-06-22T09:03:58;94868.03;;;31.46;46.81
6425;BME280;12193;42.642;23.384;2023-06-22T09:06:27;94869.41;;;31.97;47.16
6425;BME280;12193;42.642;23.384;2023-06-22T09:09:00;94864.16;;;31.01;48.51
6425;BME280;12193;42.642;23.384;2023-06-22T09:11:30;94858.56;;;31.40;44.35
6425;BME280;12193;42.642;23.384;2023-06-22T09:13:59;94862.25;;;31.01;45.29
6425;BME280;12193;42.642;23.384;2023-06-22T09:16:29;94867.16;;;32.37;43.00
6425;BME280;12193;42.642;23.384;2023-06-22T09:18:59;94865.13;;;32.54;43.72
6425;BME280;12193;42.642;23.384;2023-06-22T09:21:28;94864.00;;;32.96;42.66
6425;BME280;12193;42.642;23.384;2023-06-22T09:24:00;94866.00;;;32.87;43.18
6425;BME280;12193;42.642;23.384;2023-06-22T09:26:30;94862.47;;;31.96;44.76
6425;BME280;12193;42.642;23.384;2023-06-22T09:28:59;94860.41;;;30.85;43.50
6425;BME280;12193;42.642;23.384;2023-06-22T09:31:29;94854.72;;;30.70;48.61
6425;BME280;12193;42.642;23.384;2023-06-22T09:33:58;94867.31;;;31.03;45.84
6425;BME280;12193;42.642;23.384;2023-06-22T09:36:27;94866.22;;;32.04;42.92
6425;BME280;12193;42.642;23.384;2023-06-22T09:38:56;94872.41;;;32.04;41.95
6425;BME280;12193;42.642;23.384;2023-06-22T09:41:34;94872.50;;;32.66;44.34
6425;BME280;12193;42.642;23.384;2023-06-22T09:44:04;94872.69;;;32.11;42.18
6425;BME280;12193;42.642;23.384;2023-06-22T09:46:33;94864.72;;;31.49;45.13
6425;BME280;12193;42.642;23.384;2023-06-22T09:49:02;94864.81;;;30.89;43.70
6425;BME280;12193;42.642;23.384;2023-06-22T09:51:32;94865.59;;;30.81;44.07
6425;BME280;12193;42.642;23.384;2023-06-22T09:54:01;94861.06;;;31.53;42.67
6425;BME280;12193;42.642;23.384;2023-06-22T09:56:30;94859.94;;;31.63;42.54
6425;BME280;12193;42.642;23.384;2023-06-22T09:59:02;94858.69;;;31.43;41.37
6425;BME280;12193;42.642;23.384;2023-06-22T10:01:32;94850.38;;;32.31;40.57
6425;BME280;12193;42.642;23.384;2023-06-22T10:04:02;94848.56;;;32.23;40.86
6425;BME280;12193;42.642;23.384;2023-06-22T10:06:31;94839.44;;;32.77;40.03
6425;BME280;12193;42.642;23.384;2023-06-22T10:09:00;94850.88;;;32.95;39.50
6425;BME280;12193;42.642;23.384;2023-06-22T10:11:30;94844.72;;;33.71;39.80
6425;BME280;12193;42.642;23.384;2023-06-22T10:14:03;94846.91;;;33.12;39.22
6425;BME280;12193;42.642;23.384;2023-06-22T10:16:33;94843.53;;;31.85;41.64
6425;BME280;12193;42.642;23.384;2023-06-22T10:19:03;94835.47;;;31.39;43.68
6425;BME280;12193;42.642;23.384;2023-06-22T10:21:32;94830.97;;;31.14;40.97
6425;BME280;12193;42.642;23.384;2023-06-22T10:24:02;94839.47;;;31.24;41.97
6425;BME280;12193;42.642;23.384;2023-06-22T10:26:32;94835.81;;;31.75;41.08
6425;BME280;12193;42.642;23.384;2023-06-22T10:29:04;94841.34;;;32.07;41.17
6425;BME280;12193;42.642;23.384;2023-06-22T10:31:33;94825.41;;;31.73;42.17
6425;BME280;12193;42.642;23.384;2023-06-22T10:34:03;94837.22;;;32.38;39.44
6425;BME280;12193;42.642;23.384;2023-06-22T10:36:32;94826.63;;;33.27;36.93
6425;BME280;12193;42.642;23.384;2023-06-22T10:39:02;94821.53;;;32.93;37.44
6425;BME280;12193;42.642;23.384;2023-06-22T10:41:31;94828.69;;;32.57;39.48
6425;BME280;12193;42.642;23.384;2023-06-22T10:44:03;94829.94;;;32.80;38.82
6425;BME280;12193;42.642;23.384;2023-06-22T10:46:33;94819.66;;;32.32;36.05
6425;BME280;12193;42.642;23.384;2023-06-22T10:49:02;94812.69;;;32.31;37.92
6425;BME280;12193;42.642;23.384;2023-06-22T10:51:31;94816.28;;;31.57;38.36
6425;BME280;12193;42.642;23.384;2023-06-22T10:54:00;94817.84;;;31.95;38.19
6425;BME280;12193;42.642;23.384;2023-06-22T10:56:30;94820.06;;;32.43;36.81
6425;BME280;12193;42.642;23.384;2023-06-22T10:58:59;94803.78;;;31.61;37.20
6425;BME280;12193;42.642;23.384;2023-06-22T11:01:31;94815.19;;;33.09;34.43
6425;BME280;12193;42.642;23.384;2023-06-22T11:04:01;94811.94;;;33.36;34.33
6425;BME280;12193;42.642;23.384;2023-06-22T11:06:30;94817.38;;;32.43;36.63
6425;BME280;12193;42.642;23.384;2023-06-22T11:08:59;94814.97;;;32.00;37.08
6425;BME280;12193;42.642;23.384;2023-06-22T11:11:29;94807.97;;;31.79;37.54
6425;BME280;12193;42.642;23.384;2023-06-22T11:13:59;94812.09;;;32.05;36.67
6425;BME280;12193;42.642;23.384;2023-06-22T11:16:31;94809.78;;;31.67;37.91
6425;BME280;12193;42.642;23.384;2023-06-22T11:19:01;94808.91;;;33.05;35.00
6425;BME280;12193;42.642;23.384;2023-06-22T11:21:30;94794.19;;;34.07;33.55
6425;BME280;12193;42.642;23.384;2023-06-22T11:24:00;94795.09;;;34.23;34.06
6425;BME280;12193;42.642;23.384;2023-06-22T11:26:29;94794.63;;;34.33;34.56
6425;BME280;12193;42.642;23.384;2023-06-22T11:28:59;94793.84;;;33.04;35.89
6425;BME280;12193;42.642;23.384;2023-06-22T11:31:34;94788.91;;;33.51;37.70
6425;BME280;12193;42.642;23.384;2023-06-22T11:34:04;94790.47;;;33.28;35.07
6425;BME280;12193;42.642;23.384;2023-06-22T11:36:33;94783.84;;;33.49;34.28
6425;BME280;12193;42.642;23.384;2023-06-22T11:39:02;94787.09;;;34.66;33.41
6425;BME280;12193;42.642;23.384;2023-06-22T11:41:32;94789.44;;;34.40;33.37
6425;BME280;12193;42.642;23.384;2023-06-22T11:44:01;94780.66;;;34.43;33.05
6425;BME280;12193;42.642;23.384;2023-06-22T11:46:33;94782.25;;;34.08;33.96
6425;BME280;12193;42.642;23.384;2023-06-22T11:49:03;94775.88;;;34.01;33.78
6425;BME280;12193;42.642;23.384;2023-06-22T11:51:32;94770.94;;;34.81;33.90
6425;BME280;12193;42.642;23.384;2023-06-22T11:54:02;94772.50;;;34.55;33.42
6425;BME280;12193;42.642;23.384;2023-06-22T11:56:31;94771.53;;;36.10;31.27
6425;BME280;12193;42.642;23.384;2023-06-22T11:59:00;94763.50;;;36.14;30.77
6425;BME280;12193;42.642;23.384;2023-06-22T12:01:30;94759.50;;;36.61;30.41
6425;BME280;12193;42.642;23.384;2023-06-22T12:04:01;94762.75;;;35.82;29.98
6425;BME280;12193;42.642;23.384;2023-06-22T12:06:31;94765.97;;;34.56;31.88
6425;BME280;12193;42.642;23.384;2023-06-22T12:09:03;94767.66;;;33.37;34.38
6425;BME280;12193;42.642;23.384;2023-06-22T12:11:32;94767.44;;;32.86;36.07
6425;BME280;12193;42.642;23.384;2023-06-22T12:14:01;94762.16;;;31.67;37.93
6425;BME280;12193;42.642;23.384;2023-06-22T12:16:31;94765.47;;;31.35;38.11
6425;BME280;12193;42.642;23.384;2023-06-22T12:19:03;94780.00;;;30.29;40.85
6425;BME280;12193;42.642;23.384;2023-06-22T12:21:32;94777.41;;;28.74;50.36
6425;BME280;12193;42.642;23.384;2023-06-22T12:24:02;94776.75;;;27.62;57.02
6425;BME280;12193;42.642;23.384;2023-06-22T12:26:32;94782.72;;;26.24;66.19
6425;BME280;12193;42.642;23.384;2023-06-22T12:29:01;94787.47;;;25.71;69.84
6425;BME280;12193;42.642;23.384;2023-06-22T12:31:30;94781.06;;;25.49;70.66
6425;BME280;12193;42.642;23.384;2023-06-22T12:34:00;94785.22;;;25.60;68.72
6425;BME280;12193;42.642;23.384;2023-06-22T12:36:31;94792.31;;;25.46;71.34
6425;BME280;12193;42.642;23.384;2023-06-22T12:39:01;94812.53;;;25.24;73.45
6425;BME280;12193;42.642;23.384;2023-06-22T12:41:30;94823.72;;;24.30;84.84
6425;BME280;12193;42.642;23.384;2023-06-22T12:44:00;94817.56;;;23.43;96.11
6425;BME280;12193;42.642;23.384;2023-06-22T12:46:29;94830.16;;;22.78;100.00
6425;BME280;12193;42.642;23.384;2023-06-22T12:49:03;94828.03;;;22.25;100.00
6425;BME280;12193;42.642;23.384;2023-06-22T12:51:39;94835.94;;;21.96;100.00
6425;BME280;12193;42.642;23.384;2023-06-22T12:54:11;94838.31;;;21.97;100.00
6425;BME280;12193;42.642;23.384;2023-06-22T12:56:40;94843.38;;;22.08;100.00
6425;BME280;12193;42.642;23.384;2023-06-22T12:59:10;94846.78;;;21.84;100.00
6425;BME280;12193;42.642;23.384;2023-06-22T13:01:39;94859.22;;;21.79;100.00
6425;BME280;12193;42.642;23.384;2023-06-22T13:04:10;94858.91;;;21.75;100.00
6425;BME280;12193;42.642;23.384;2023-06-22T13:06:44;94859.50;;;21.97;100.00
6425;BME280;12193;42.642;23.384;2023-06-22T13:09:14;94864.81;;;22.07;100.00
6425;BME280;12193;42.642;23.384;2023-06-22T13:11:44;94859.81;;;22.30;100.00
6425;BME280;12193;42.642;23.384;2023-06-22T13:14:13;94846.06;;;22.43;100.00
6425;BME280;12193;42.642;23.384;2023-06-22T13:16:42;94850.56;;;22.53;100.00
6425;BME280;12193;42.642;23.384;2023-06-22T13:19:12;94835.22;;;22.60;100.00
6425;BME280;12193;42.642;23.384;2023-06-22T13:21:44;94846.34;;;22.62;100.00
6425;BME280;12193;42.642;23.384;2023-06-22T13:24:13;94845.28;;;22.68;100.00
6425;BME280;12193;42.642;23.384;2023-06-22T13:26:43;94855.38;;;22.66;100.00
6425;BME280;12193;42.642;23.384;2023-06-22T13:29:12;94864.38;;;22.70;100.00
6425;BME280;12193;42.642;23.384;2023-06-22T13:31:42;94862.78;;;22.89;100.00
6425;BME280;12193;42.642;23.384;2023-06-22T13:34:11;94841.00;;;23.02;100.00
6425;BME280;12193;42.642;23.384;2023-06-22T13:36:43;94835.97;;;23.15;100.00
6425;BME280;12193;42.642;23.384;2023-06-22T13:39:13;94840.16;;;23.31;100.00
6425;BME280;12193;42.642;23.384;2023-06-22T13:41:42;94835.06;;;23.44;100.00
6425;BME280;12193;42.642;23.384;2023-06-22T13:44:11;94837.41;;;23.56;100.00
6425;BME280;12193;42.642;23.384;2023-06-22T13:46:40;94829.19;;;23.52;100.00
6425;BME280;12193;42.642;23.384;2023-06-22T13:49:10;94830.88;;;23.33;100.00
6425;BME280;12193;42.642;23.384;2023-06-22T13:51:39;94830.13;;;23.03;100.00
6425;BME280;12193;42.642;23.384;2023-06-22T13:54:11;94835.97;;;22.25;100.00
6425;BME280;12193;42.642;23.384;2023-06-22T13:56:41;94839.91;;;21.88;100.00
6425;BME280;12193;42.642;23.384;2023-06-22T13:59:10;94827.41;;;21.74;100.00
6425;BME280;12193;42.642;23.384;2023-06-22T14:01:39;94826.84;;;21.62;100.00
6425;BME280;12193;42.642;23.384;2023-06-22T14:04:10;94840.78;;;21.42;100.00
6425;BME280;12193;42.642;23.384;2023-06-22T14:06:39;94838.38;;;21.36;100.00
6425;BME280;12193;42.642;23.384;2023-06-22T14:09:11;94856.13;;;21.45;100.00
6425;BME280;12193;42.642;23.384;2023-06-22T14:11:41;94855.94;;;21.10;100.00
6425;BME280;12193;42.642;23.384;2023-06-22T14:14:10;94861.34;;;20.84;100.00
6425;BME280;12193;42.642;23.384;2023-06-22T14:16:39;94869.09;;;20.64;100.00
6425;BME280;12193;42.642;23.384;2023-06-22T14:19:08;94858.91;;;20.46;100.00
6425;BME280;12193;42.642;23.384;2023-06-22T14:21:38;94856.50;;;20.40;100.00
6425;BME280;12193;42.642;23.384;2023-06-22T14:24:07;94851.66;;;20.32;100.00
6425;BME280;12193;42.642;23.384;2023-06-22T14:26:39;94834.53;;;20.34;100.00
6425;BME280;12193;42.642;23.384;2023-06-22T14:29:08;94853.25;;;20.28;100.00
6425;BME280;12193;42.642;23.384;2023-06-22T14:31:37;94844.06;;;20.40;100.00
6425;BME280;12193;42.642;23.384;2023-06-22T14:34:07;94842.63;;;20.59;100.00
6425;BME280;12193;42.642;23.384;2023-06-22T14:36:36;94844.56;;;20.69;100.00
6425;BME280;12193;42.642;23.384;2023-06-22T14:39:06;94834.41;;;20.87;100.00
6425;BME280;12193;42.642;23.384;2023-06-22T14:41:35;94832.06;;;20.96;100.00
6425;BME280;12193;42.642;23.384;2023-06-22T14:44:07;94838.53;;;21.14;100.00
6425;BME280;12193;42.642;23.384;2023-06-22T14:46:37;94841.19;;;21.19;100.00
6425;BME280;12193;42.642;23.384;2023-06-22T14:49:06;94842.34;;;21.38;100.00
6425;BME280;12193;42.642;23.384;2023-06-22T14:51:35;94835.34;;;21.69;100.00
6425;BME280;12193;42.642;23.384;2023-06-22T14:54:04;94841.50;;;21.89;100.00
6425;BME280;12193;42.642;23.384;2023-06-22T14:56:34;94845.78;;;22.10;100.00
6425;BME280;12193;42.642;23.384;2023-06-22T14:59:03;94840.50;;;22.30;100.00
6425;BME280;12193;42.642;23.384;2023-06-22T15:01:35;94830.97;;;22.54;100.00
6425;BME280;12193;42.642;23.384;2023-06-22T15:04:04;94829.09;;;22.89;100.00
6425;BME280;12193;42.642;23.384;2023-06-22T15:06:34;94831.19;;;23.17;100.00
6425;BME280;12193;42.642;23.384;2023-06-22T15:09:03;94832.72;;;23.33;100.00
6425;BME280;12193;42.642;23.384;2023-06-22T15:11:33;94822.78;;;23.58;100.00
6425;BME280;12193;42.642;23.384;2023-06-22T15:14:02;94823.63;;;23.49;100.00
6425;BME280;12193;42.642;23.384;2023-06-22T15:16:32;94811.41;;;23.53;100.00
6425;BME280;12193;42.642;23.384;2023-06-22T15:19:04;94806.22;;;23.86;100.00
6425;BME280;12193;42.642;23.384;2023-06-22T15:21:33;94801.97;;;23.85;100.00
6425;BME280;12193;42.642;23.384;2023-06-22T15:24:02;94804.09;;;23.88;100.00
6425;BME280;12193;42.642;23.384;2023-06-22T15:26:31;94802.38;;;23.54;100.00
6425;BME280;12193;42.642;23.384;2023-06-22T15:29:00;94799.88;;;23.19;100.00
6425;BME280;12193;42.642;23.384;2023-06-22T15:31:30;94788.00;;;22.87;100.00
6425;BME280;12193;42.642;23.384;2023-06-22T15:33:59;94788.00;;;22.82;100.00
6425;BME280;12193;42.642;23.384;2023-06-22T15:36:32;94794.94;;;22.43;100.00
6425;BME280;12193;42.642;23.384;2023-06-22T15:39:02;94788.28;;;22.65;100.00
6425;BME280;12193;42.642;23.384;2023-06-22T15:41:31;94805.78;;;22.76;100.00
6425;BME280;12193;42.642;23.384;2023-06-22T15:44:00;94805.50;;;22.33;100.00
6425;BME280;12193;42.642;23.384;2023-06-22T15:46:29;94805.81;;;22.51;100.00
6425;BME280;12193;42.642;23.384;2023-06-22T15:48:59;94809.22;;;22.87;100.00
6425;BME280;12193;42.642;23.384;2023-06-22T15:51:28;94808.31;;;23.26;100.00
6425;BME280;12193;42.642;23.384;2023-06-22T15:54:00;94814.03;;;23.58;100.00
6425;BME280;12193;42.642;23.384;2023-06-22T15:56:29;94815.66;;;23.54;100.00
6425;BME280;12193;42.642;23.384;2023-06-22T15:58:58;94815.63;;;23.59;100.00